Time;durP1;ratioP1;P1;durP2;ratioP2;P2;SDS_P1;SDS_P2;PMS_P1;PMS_P2;Temp;Humidity;BMP_temperature;BMP_pressure;BME280_temperature;BME280_humidity;BME280_pressure;Samples;Min_cycle;Max_cycle;Signal;HPM_P1;HPM_P2
2023/03/15 00:00:55;;;;;;;20.75;4.53;;;;;;;4.22;96.51;100219.84;8293406;28;20394;-57
2023/03/15 00:04:55;;;;;;;16.17;4.60;;;;;;;4.21;96.98;100218.13;8311658;28;20049;-59
2023/03/15 00:08:56;;;;;;;20.30;4.45;;;;;;;4.27;97.39;100236.44;8293441;28;20042;-58
2023/03/15 00:12:56;;;;;;;13.18;4.80;;;;;;;4.32;98.53;100235.13;8293349;28;20049;-58
2023/03/15 00:16:57;;;;;;;18.58;5.50;;;;;;;4.22;98.31;100243.91;8293110;28;20488;-58
2023/03/15 00:20:58;;;;;;;17.42;5.28;;;;;;;3.99;100.00;100249.03;8291943;28;20113;-58
2023/03/15 00:24:58;;;;;;;17.83;5.97;;;;;;;4.04;100.00;100238.91;8291379;28;20049;-58
2023/03/15 00:28:59;;;;;;;26.70;7.85;;;;;;;4.24;100.00;100236.63;8287682;28;20479;-54
2023/03/15 00:32:59;;;;;;;26.83;7.78;;;;;;;4.52;100.00;100247.09;8317187;28;20041;-58
2023/03/15 00:37:00;;;;;;;23.45;8.20;;;;;;;4.64;98.47;100247.09;8325097;28;20046;-58
2023/03/15 00:41:07;;;;;;;17.58;8.35;;;;;;;4.75;97.22;100239.13;8325470;28;20091;-59
2023/03/15 00:45:09;;;;;;;20.45;7.85;;;;;;;4.87;95.05;100237.38;8324949;28;20041;-60
2023/03/15 00:49:10;;;;;;;15.38;6.88;;;;;;;4.94;94.58;100244.84;8324699;28;20049;-59
2023/03/15 00:53:11;;;;;;;23.50;6.43;;;;;;;5.00;93.78;100246.25;8324572;28;20064;-60
2023/03/15 00:57:12;;;;;;;18.00;6.50;;;;;;;4.99;93.04;100247.19;8303731;28;20038;-59
2023/03/15 01:01:17;;;;;;;19.80;7.07;;;;;;;4.96;93.65;100242.06;8292404;28;20038;-61
2023/03/15 01:05:17;;;;;;;19.23;6.35;;;;;;;4.99;93.51;100248.06;8320763;28;20065;-55
2023/03/15 01:09:18;;;;;;;14.73;6.00;;;;;;;5.13;94.30;100265.81;8312231;28;20038;-58
2023/03/15 01:13:18;;;;;;;22.10;6.28;;;;;;;5.11;96.28;100282.00;8295410;28;20045;-59
2023/03/15 01:17:19;;;;;;;16.38;5.22;;;;;;;4.68;100.00;100280.69;8320851;28;20041;-58
2023/03/15 01:21:21;;;;;;;15.95;6.40;;;;;;;4.46;100.00;100285.00;8287022;28;20046;-58
2023/03/15 01:25:22;;;;;;;23.35;6.85;;;;;;;4.38;100.00;100282.00;8278060;28;20579;-58
2023/03/15 01:29:22;;;;;;;18.42;7.55;;;;;;;4.36;100.00;100278.59;8259986;28;20504;-57
2023/03/15 01:33:23;;;;;;;17.75;7.05;;;;;;;4.39;100.00;100289.09;8258647;28;20039;-59
2023/03/15 01:37:23;;;;;;;25.25;7.63;;;;;;;4.43;100.00;100290.56;8259294;28;20049;-59
2023/03/15 01:41:26;;;;;;;22.15;8.20;;;;;;;4.41;100.00;100297.84;8258575;28;20497;-59
2023/03/15 01:46:06;;;;;;;23.88;7.82;;;;;;;4.44;100.00;100298.50;8259309;28;20388;-52
2023/03/15 01:50:11;;;;;;;20.27;7.95;;;;;;;4.41;100.00;100300.50;8287494;28;20503;-54
2023/03/15 01:54:37;;;;;;;18.92;7.55;;;;;;;4.40;100.00;100312.19;8291841;28;20381;-53
2023/03/15 01:58:40;;;;;;;31.98;8.13;;;;;;;4.30;100.00;100311.13;8284872;28;20050;-54
2023/03/15 02:02:45;;;;;;;32.42;8.02;;;;;;;4.20;100.00;100320.75;8305641;28;20065;-53
2023/03/15 02:06:58;;;;;;;20.60;7.00;;;;;;;3.94;100.00;100320.69;8303302;28;20038;-54
2023/03/15 02:11:03;;;;;;;21.10;6.65;;;;;;;3.56;100.00;100318.88;8297941;28;20508;-54
2023/03/15 02:15:06;;;;;;;21.38;6.93;;;;;;;3.19;100.00;100299.06;8296894;28;20060;-53
2023/03/15 02:19:24;;;;;;;20.73;6.82;;;;;;;2.87;100.00;100292.25;8296951;28;21045;-54
2023/03/15 02:23:26;;;;;;;25.10;6.93;;;;;;;2.69;100.00;100288.13;8298069;28;20442;-60
2023/03/15 02:27:33;;;;;;;21.35;7.68;;;;;;;2.61;100.00;100297.53;8294260;28;20411;-60
2023/03/15 02:31:36;;;;;;;16.95;7.30;;;;;;;2.66;100.00;100315.00;8296248;28;20042;-60
2023/03/15 02:35:37;;;;;;;16.90;7.63;;;;;;;2.59;100.00;100305.63;8344062;28;20045;-60
2023/03/15 02:39:37;;;;;;;17.63;7.18;;;;;;;2.62;100.00;100308.13;8298396;28;20560;-60
2023/03/15 02:43:39;;;;;;;21.02;7.90;;;;;;;2.64;100.00;100306.22;8295926;28;20120;-60
2023/03/15 02:47:42;;;;;;;18.90;7.07;;;;;;;2.68;100.00;100307.72;8295734;28;20096;-60
2023/03/15 02:51:42;;;;;;;15.68;7.57;;;;;;;2.66;100.00;100309.66;8296277;28;20038;-54
2023/03/15 02:55:43;;;;;;;23.15;8.30;;;;;;;2.61;100.00;100311.75;8290779;28;20048;-54
2023/03/15 02:59:43;;;;;;;21.30;7.55;;;;;;;2.61;100.00;100317.09;8295255;28;20121;-55
2023/03/15 03:03:46;;;;;;;24.83;8.23;;;;;;;2.60;100.00;100319.84;8314009;28;20037;-54
2023/03/15 03:07:49;;;;;;;20.27;7.93;;;;;;;2.55;100.00;100328.13;8328205;28;20116;-57
2023/03/15 03:11:49;;;;;;;21.45;6.90;;;;;;;2.55;100.00;100327.25;8328552;28;20120;-54
2023/03/15 03:15:57;;;;;;;13.40;6.43;;;;;;;2.61;100.00;100335.75;8327572;28;20519;-60
2023/03/15 03:19:59;;;;;;;18.85;6.03;;;;;;;2.65;100.00;100328.44;8328127;28;20132;-60
2023/03/15 03:24:09;;;;;;;17.25;5.38;;;;;;;2.66;100.00;100336.34;8299765;28;20058;-61
2023/03/15 03:28:10;;;;;;;12.32;5.15;;;;;;;2.76;100.00;100333.94;8292549;28;20065;-60
2023/03/15 03:32:11;;;;;;;12.32;5.43;;;;;;;2.84;100.00;100340.50;8299043;28;20037;-50
2023/03/15 03:36:12;;;;;;;13.95;4.45;;;;;;;2.87;100.00;100344.81;8327397;28;20041;-53
2023/03/15 03:40:13;;;;;;;9.98;5.32;;;;;;;2.88;100.00;100351.84;8327145;28;20041;-52
2023/03/15 03:44:15;;;;;;;8.43;4.45;;;;;;;2.93;100.00;100347.09;8325485;28;20052;-53
2023/03/15 03:48:18;;;;;;;13.85;4.80;;;;;;;2.95;100.00;100353.16;8319229;28;20041;-53
2023/03/15 03:52:19;;;;;;;10.40;4.95;;;;;;;3.01;100.00;100353.66;8327187;28;20072;-51
2023/03/15 03:56:22;;;;;;;10.07;5.00;;;;;;;2.97;100.00;100357.47;8311600;28;20091;-53
2023/03/15 04:00:22;;;;;;;8.00;5.18;;;;;;;2.97;100.00;100360.16;8293432;28;20038;-54
2023/03/15 04:04:25;;;;;;;8.30;4.82;;;;;;;2.97;100.00;100362.81;8316025;28;20069;-54
2023/03/15 04:08:26;;;;;;;9.65;5.45;;;;;;;3.17;100.00;100370.41;8326932;28;20491;-53
2023/03/15 04:12:27;;;;;;;11.05;5.05;;;;;;;3.09;100.00;100382.53;8325930;28;20116;-54
2023/03/15 04:16:29;;;;;;;11.20;5.75;;;;;;;3.10;100.00;100385.13;8325975;28;20515;-54
2023/03/15 04:20:35;;;;;;;13.40;6.88;;;;;;;3.18;100.00;100377.50;8298742;28;20238;-52
2023/03/15 04:24:38;;;;;;;17.52;8.00;;;;;;;3.32;100.00;100396.16;8283491;28;20038;-52
2023/03/15 04:28:58;;;;;;;15.43;8.15;;;;;;;3.34;100.00;100410.28;8293474;28;20077;-52
2023/03/15 04:33:09;;;;;;;13.70;7.32;;;;;;;3.19;100.00;100405.91;8306355;28;20053;-52
2023/03/15 04:37:31;;;;;;;16.20;7.32;;;;;;;3.03;100.00;100410.50;8326044;28;20037;-54
2023/03/15 04:41:41;;;;;;;10.93;6.70;;;;;;;3.00;100.00;100420.50;8324885;28;20392;-53
2023/03/15 04:45:53;;;;;;;11.15;6.30;;;;;;;3.07;100.00;100421.81;8324473;28;20518;-53
2023/03/15 04:50:04;;;;;;;10.05;6.20;;;;;;;3.21;100.00;100419.16;8325017;28;20124;-53
2023/03/15 04:54:10;;;;;;;8.23;5.22;;;;;;;3.34;100.00;100426.31;8324843;28;20065;-54
2023/03/15 04:58:27;;;;;;;5.30;4.18;;;;;;;3.36;100.00;100421.69;8292432;28;20041;-55
2023/03/15 05:02:53;;;;;;;6.03;3.80;;;;;;;3.34;100.00;100430.78;8261104;28;20038;-57
2023/03/15 05:07:08;;;;;;;6.30;4.07;;;;;;;3.25;100.00;100434.91;8261738;28;20054;-59
2023/03/15 05:11:20;;;;;;;5.78;4.45;;;;;;;3.23;100.00;100423.44;8287361;28;20045;-58
2023/03/15 05:15:34;;;;;;;6.00;4.50;;;;;;;3.22;100.00;100418.19;8418635;27;20407;-56
2023/03/15 05:19:48;;;;;;;;;;;;;;;3.25;100.00;100426.88;8418646;28;20040;-55
2023/03/15 05:24:04;;;;;;;7.03;5.32;;;;;;;3.20;100.00;100423.63;8420330;28;19970;-57
2023/03/15 05:28:25;;;;;;;9.20;5.40;;;;;;;3.25;100.00;100442.03;8420530;28;20498;-58
2023/03/15 05:32:43;;;;;;;8.20;5.38;;;;;;;3.25;100.00;100447.38;8419380;28;20060;-58
2023/03/15 05:36:52;;;;;;;9.25;5.78;;;;;;;3.25;100.00;100464.28;8410324;28;20560;-58
2023/03/15 05:41:16;;;;;;;13.10;8.02;;;;;;;3.29;100.00;100468.47;8409852;28;20032;-59
2023/03/15 05:45:23;;;;;;;13.93;8.80;;;;;;;3.31;100.00;100474.59;8392402;28;20040;-58
2023/03/15 05:49:34;;;;;;;18.02;8.93;;;;;;;3.34;100.00;100485.06;8401108;28;20040;-58
2023/03/15 05:53:46;;;;;;;18.13;10.57;;;;;;;3.34;100.00;100490.41;8395500;28;20032;-58
2023/03/15 05:58:06;;;;;;;17.85;10.90;;;;;;;3.39;100.00;100506.16;8366827;28;20620;-59
2023/03/15 06:02:27;;;;;;;22.17;11.07;;;;;;;3.34;100.00;100506.44;8380398;28;20041;-59
2023/03/15 06:06:45;;;;;;;20.92;12.02;;;;;;;3.42;100.00;100519.34;8385987;28;20067;-59
2023/03/15 06:10:46;;;;;;;18.65;10.95;;;;;;;3.44;100.00;100517.41;8381484;28;20037;-59
2023/03/15 06:14:47;;;;;;;19.02;11.55;;;;;;;3.44;100.00;100518.28;8364597;28;20530;-60
2023/03/15 06:18:47;;;;;;;19.45;11.10;;;;;;;3.44;100.00;100518.28;8362599;28;20045;-59
2023/03/15 06:22:48;;;;;;;20.67;11.25;;;;;;;3.48;100.00;100537.66;8364533;28;20041;-57
2023/03/15 06:27:00;;;;;;;20.73;11.15;;;;;;;3.59;100.00;100548.50;8359741;28;20040;-59
2023/03/15 06:31:07;;;;;;;20.70;12.27;;;;;;;3.65;100.00;100564.16;8357042;28;20055;-59
2023/03/15 06:35:12;;;;;;;21.02;11.82;;;;;;;3.65;100.00;100559.69;8358469;28;20036;-59
2023/03/15 06:39:13;;;;;;;20.83;12.25;;;;;;;3.58;100.00;100561.03;8356899;28;20045;-60
2023/03/15 06:43:18;;;;;;;21.20;12.88;;;;;;;3.72;100.00;100578.88;8343364;28;20384;-58
2023/03/15 06:47:19;;;;;;;24.35;13.63;;;;;;;3.80;100.00;100587.28;8348388;28;20037;-57
2023/03/15 06:51:19;;;;;;;20.27;11.85;;;;;;;3.78;100.00;100600.72;8364986;28;20139;-53
2023/03/15 06:55:21;;;;;;;25.42;13.90;;;;;;;3.81;100.00;100603.22;8358004;28;20044;-52
2023/03/15 06:59:23;;;;;;;21.08;12.93;;;;;;;3.85;100.00;100615.44;8359703;28;20041;-53
2023/03/15 07:03:24;;;;;;;23.10;14.23;;;;;;;3.88;100.00;100612.56;8354228;28;20037;-51
2023/03/15 07:07:24;;;;;;;25.05;13.77;;;;;;;3.86;100.00;100627.88;8329191;28;20060;-52
2023/03/15 07:11:24;;;;;;;22.25;13.80;;;;;;;3.90;100.00;100632.06;8329246;28;20126;-53
2023/03/15 07:15:25;;;;;;;22.60;13.63;;;;;;;3.97;100.00;100651.25;8328833;28;20033;-53
2023/03/15 07:19:25;;;;;;;21.33;12.70;;;;;;;3.90;100.00;100644.56;8329662;28;20071;-53
2023/03/15 07:23:27;;;;;;;27.27;13.90;;;;;;;3.94;100.00;100654.97;8328243;28;20079;-51
2023/03/15 07:27:28;;;;;;;23.58;14.02;;;;;;;3.94;100.00;100657.63;8339949;28;20067;-58
2023/03/15 07:31:28;;;;;;;23.90;13.18;;;;;;;3.97;100.00;100662.78;8345309;28;20685;-58
2023/03/15 07:35:29;;;;;;;25.35;13.93;;;;;;;4.10;100.00;100662.91;8334079;28;20059;-58
2023/03/15 07:39:31;;;;;;;23.73;13.80;;;;;;;4.21;100.00;100678.28;8355140;28;20045;-57
2023/03/15 07:43:32;;;;;;;27.55;15.57;;;;;;;4.35;100.00;100683.59;8353668;28;20041;-58
2023/03/15 07:47:43;;;;;;;26.38;14.95;;;;;;;4.72;100.00;100688.31;8348660;28;20037;-58
2023/03/15 07:51:43;;;;;;;27.20;15.02;;;;;;;5.16;100.00;100697.81;8351037;28;20684;-58
2023/03/15 07:55:46;;;;;;;24.85;13.88;;;;;;;5.78;100.00;100704.28;8340005;28;20166;-58
2023/03/15 07:59:46;;;;;;;16.95;11.43;;;;;;;6.12;100.00;100711.72;8346259;28;20044;-58
2023/03/15 08:03:47;;;;;;;19.27;10.95;;;;;;;5.91;100.00;100715.91;8334658;28;20496;-58
2023/03/15 08:07:47;;;;;;;16.45;11.10;;;;;;;5.93;100.00;100720.22;8341634;28;20503;-60
2023/03/15 08:11:48;;;;;;;15.95;10.18;;;;;;;5.81;100.00;100721.06;8338965;28;20041;-59
2023/03/15 08:15:48;;;;;;;15.82;9.50;;;;;;;5.91;100.00;100732.00;8326636;28;20510;-59
2023/03/15 08:19:49;;;;;;;16.25;10.82;;;;;;;5.97;100.00;100736.94;8347434;28;20325;-59
2023/03/15 08:23:49;;;;;;;17.42;10.57;;;;;;;5.91;100.00;100745.44;8364807;28;20111;-61
2023/03/15 08:27:51;;;;;;;20.08;10.57;;;;;;;5.84;100.00;100752.19;8322760;28;20049;-59
2023/03/15 08:31:51;;;;;;;17.48;11.60;;;;;;;5.46;100.00;100761.94;8338340;28;20040;-59
2023/03/15 08:35:52;;;;;;;18.50;9.85;;;;;;;5.12;100.00;100763.28;8336330;28;20099;-59
2023/03/15 08:39:59;;;;;;;19.50;11.55;;;;;;;5.03;100.00;100773.78;8332749;28;20042;-60
2023/03/15 08:44:00;;;;;;;21.65;10.73;;;;;;;5.12;100.00;100784.72;8323887;28;20033;-59
2023/03/15 08:48:00;;;;;;;23.55;11.50;;;;;;;5.22;100.00;100785.00;8333146;28;20044;-59
2023/03/15 08:52:01;;;;;;;23.83;11.68;;;;;;;5.13;100.00;100804.38;8353551;28;20029;-59
2023/03/15 08:56:01;;;;;;;26.85;13.52;;;;;;;5.29;100.00;100818.47;8340588;28;20578;-59
2023/03/15 09:00:07;;;;;;;23.73;13.20;;;;;;;5.37;100.00;100826.91;8329154;28;20045;-59
2023/03/15 09:04:07;;;;;;;26.60;14.15;;;;;;;5.44;100.00;100817.47;8353395;28;20419;-59
2023/03/15 09:08:08;;;;;;;24.58;12.50;;;;;;;5.86;100.00;100820.03;8333026;28;20069;-59
2023/03/15 09:12:08;;;;;;;15.25;9.00;;;;;;;6.14;94.53;100825.22;8352000;28;20380;-60
2023/03/15 09:16:09;;;;;;;11.15;6.55;;;;;;;6.22;93.36;100822.84;8355063;28;20052;-58
2023/03/15 09:20:15;;;;;;;9.82;6.03;;;;;;;6.34;91.46;100819.31;8356075;28;20060;-58
2023/03/15 09:24:16;;;;;;;11.75;6.68;;;;;;;6.25;93.09;100821.81;8354034;28;20044;-58
2023/03/15 09:28:16;;;;;;;13.05;6.85;;;;;;;6.11;94.78;100820.06;8347381;28;20052;-60
2023/03/15 09:32:16;;;;;;;16.17;8.23;;;;;;;5.99;94.98;100831.63;8356629;28;20506;-59
2023/03/15 09:36:17;;;;;;;21.90;9.80;;;;;;;5.78;97.01;100833.03;8356948;28;20407;-59
2023/03/15 09:40:24;;;;;;;13.57;8.13;;;;;;;5.73;94.68;100840.53;8355678;28;20068;-59
2023/03/15 09:49:13;;;;;;;11.13;6.65;;;;;;;6.75;88.20;100854.91;8409319;27;20470;-58
2023/03/15 09:53:30;;;;;;;13.10;6.60;;;;;;;7.81;82.76;100848.78;8401551;27;20040;-58
2023/03/15 09:57:50;;;;;;;12.32;5.78;;;;;;;10.02;74.94;100848.91;8386474;27;20063;-59
2023/03/15 10:01:55;;;;;;;13.70;5.32;;;;;;;8.54;76.17;100859.38;8384838;27;20120;-59
2023/03/15 10:06:00;;;;;;;10.98;5.10;;;;;;;10.03;74.14;100847.91;8390945;27;20045;-59
2023/03/15 10:10:03;;;;;;;9.38;3.92;;;;;;;10.12;70.85;100839.06;8398756;27;20040;-59
2023/03/15 10:14:34;;;;;;;9.80;4.50;;;;;;;10.03;71.28;100839.81;8400475;28;20090;-57
2023/03/15 10:18:47;;;;;;;5.65;3.75;;;;;;;12.69;67.75;100839.84;8417021;28;20162;-57
2023/03/15 10:22:57;;;;;;;7.07;3.97;;;;;;;12.48;65.56;100836.50;8400941;28;20460;-56
2023/03/15 10:27:24;;;;;;;16.67;4.07;;;;;;;13.59;62.28;100835.53;8388519;28;20044;-57
2023/03/15 10:31:30;;;;;;;6.70;3.20;;;;;;;15.07;58.00;100838.22;8376160;27;20045;-57
2023/03/15 10:35:31;;;;;;;9.52;2.45;;;;;;;15.54;57.34;100831.34;8400508;27;20040;-57
2023/03/15 10:39:32;;;;;;;10.88;3.22;;;;;;;14.94;56.50;100837.81;8401010;27;20048;-57
2023/03/15 10:43:35;;;;;;;6.60;2.75;;;;;;;16.30;56.29;100831.16;8400251;27;20472;-58
2023/03/15 10:47:42;;;;;;;6.33;2.43;;;;;;;17.02;52.93;100836.59;8400238;27;20506;-58
2023/03/15 10:51:45;;;;;;;10.85;2.00;;;;;;;15.13;53.49;100829.41;8399139;27;20065;-58
2023/03/15 10:55:45;;;;;;;9.50;2.92;;;;;;;13.01;58.19;100834.09;8399887;27;20407;-58
2023/03/15 10:59:58;;;;;;;5.35;1.50;;;;;;;14.97;52.19;100837.47;8383404;27;20033;-58
2023/03/15 11:04:04;;;;;;;7.05;1.42;;;;;;;15.44;51.58;100836.06;8370437;28;20041;-53
2023/03/15 11:08:13;;;;;;;9.55;2.15;;;;;;;15.89;53.56;100840.31;8376605;28;20075;-53
2023/03/15 11:12:20;;;;;;;5.28;1.85;;;;;;;15.24;53.10;100850.06;8377026;28;20346;-54
2023/03/15 11:16:21;;;;;;;6.18;1.85;;;;;;;14.07;54.45;100852.38;8392647;28;20040;-52
2023/03/15 11:20:29;;;;;;;4.72;1.55;;;;;;;15.79;51.71;100845.88;8372753;28;20123;-53
2023/03/15 11:24:32;;;;;;;4.20;1.13;;;;;;;17.86;48.41;100859.53;8369149;28;20042;-52
2023/03/15 11:28:36;;;;;;;5.72;1.55;;;;;;;15.59;50.29;100867.13;8366676;28;20041;-57
2023/03/15 11:32:37;;;;;;;7.45;1.35;;;;;;;16.74;48.56;100877.09;8377554;28;20451;-58
2023/03/15 11:36:42;;;;;;;5.07;0.98;;;;;;;17.33;45.60;100881.28;8384738;28;20055;-57
2023/03/15 11:40:49;;;;;;;3.85;0.98;;;;;;;17.30;46.04;100867.94;8379044;28;20043;-58
2023/03/15 11:44:54;;;;;;;2.47;0.90;;;;;;;18.32;41.55;100872.25;8367634;28;20529;-57
2023/03/15 11:48:59;;;;;;;;;;;;;;;19.57;41.46;100875.25;8389883;28;20029;-58
2023/03/15 11:53:02;;;;;;;6.50;1.00;;;;;;;19.37;40.82;100881.28;8380883;28;19971;-58
2023/03/15 11:57:06;;;;;;;7.63;1.20;;;;;;;18.52;41.28;100886.34;8375371;28;20051;-52
2023/03/15 12:01:09;;;;;;;3.55;1.23;;;;;;;17.21;42.59;100879.94;8373513;28;20291;-52
2023/03/15 12:05:49;;;;;;;4.07;0.80;;;;;;;18.85;42.09;100896.00;8384628;28;20048;-53
2023/03/15 12:09:55;;;;;;;7.22;1.10;;;;;;;15.98;46.21;100894.69;8357425;28;20094;-58
2023/03/15 12:18:14;;;;;;;6.72;1.77;;;;;;;10.98;56.75;100894.59;8337442;27;20903;-57
2023/03/15 12:22:16;;;;;;;6.50;1.42;;;;;;;10.50;57.96;100901.53;8331444;28;20049;-57
2023/03/15 12:26:30;;;;;;;4.68;0.93;;;;;;;14.66;51.18;100887.97;8297263;28;20133;-57
2023/03/15 12:30:35;;;;;;;2.33;0.80;;;;;;;16.67;45.90;100878.81;8316863;28;20095;-56
2023/03/15 12:34:54;;;;;;;4.30;1.00;;;;;;;16.90;45.90;100884.44;8318360;28;20113;-50
2023/03/15 12:43:36;;;;;;;5.07;1.10;;;;;;;15.47;47.25;100876.59;8410675;27;20485;-51
2023/03/15 12:52:26;;;;;;;4.30;0.93;;;;;;;12.75;50.68;100876.41;8389686;27;20386;-52
2023/03/15 12:56:35;;;;;;;6.00;1.10;;;;;;;13.77;51.72;100871.75;8377015;27;20066;-51
2023/03/15 13:00:36;;;;;;;5.72;1.00;;;;;;;13.57;49.60;100864.69;8376853;27;20124;-52
2023/03/15 13:04:37;;;;;;;5.63;1.02;;;;;;;13.33;51.01;100862.53;8377632;27;20119;-52
2023/03/15 13:09:15;;;;;;;5.55;0.88;;;;;;;12.01;55.22;100866.34;8401310;27;20059;-57
2023/03/15 13:13:35;;;;;;;8.65;0.90;;;;;;;11.93;55.36;100860.75;8392242;27;20042;-57
2023/03/15 13:17:57;;;;;;;2.15;0.80;;;;;;;11.41;55.54;100851.91;8401350;27;20064;-57
2023/03/15 13:27:00;;;;;;;4.22;0.80;;;;;;;10.63;55.47;100861.66;8348534;27;20400;-56
2023/03/15 13:31:01;;;;;;;4.20;1.25;;;;;;;10.81;55.61;100870.00;8348765;28;20053;-56
2023/03/15 13:35:02;;;;;;;2.83;0.80;;;;;;;11.02;55.11;100879.81;8344252;28;20045;-56
2023/03/15 13:39:10;;;;;;;5.05;0.75;;;;;;;10.47;54.22;100872.06;8347942;28;20107;-56
2023/03/15 13:43:11;;;;;;;5.70;0.93;;;;;;;10.42;54.77;100873.44;8344654;28;20038;-57
2023/03/15 13:47:20;;;;;;;5.13;1.23;;;;;;;10.11;53.61;100872.47;8347609;28;20048;-56
2023/03/15 13:51:28;;;;;;;3.72;1.10;;;;;;;10.45;56.31;100874.03;8347477;28;20451;-56
2023/03/15 13:55:35;;;;;;;5.70;0.98;;;;;;;10.57;55.25;100872.97;8347794;28;20709;-56
2023/03/15 13:59:48;;;;;;;4.20;0.68;;;;;;;10.47;55.81;100873.91;8343655;28;20054;-57
2023/03/15 14:03:57;;;;;;;6.43;1.45;;;;;;;10.48;56.08;100868.38;8337540;28;20111;-56
2023/03/15 14:08:06;;;;;;;5.32;1.10;;;;;;;10.81;55.36;100870.00;8368175;28;20032;-56
2023/03/15 14:12:18;;;;;;;5.03;0.82;;;;;;;10.72;55.67;100887.91;8343496;28;20521;-56
2023/03/15 14:16:40;;;;;;;3.45;0.90;;;;;;;10.51;53.95;100888.88;8379224;28;20028;-56
2023/03/15 14:20:44;;;;;;;2.88;0.90;;;;;;;10.41;53.11;100883.41;8379721;28;20081;-56
2023/03/15 14:24:48;;;;;;;2.70;1.02;;;;;;;10.66;54.24;100877.59;8349071;28;20041;-57
2023/03/15 14:29:12;;;;;;;3.17;0.80;;;;;;;10.38;55.81;100882.78;8346131;28;20098;-56
2023/03/15 14:33:28;;;;;;;3.20;1.17;;;;;;;9.97;55.77;100883.53;8329892;28;20064;-56
2023/03/15 14:37:38;;;;;;;5.50;0.93;;;;;;;10.24;54.96;100886.66;8297414;28;20627;-52
2023/03/15 14:41:40;;;;;;;5.22;1.25;;;;;;;10.42;54.09;100879.69;8289842;28;20117;-52
2023/03/15 14:45:44;;;;;;;2.10;1.40;;;;;;;10.35;53.65;100897.44;8288331;28;20184;-51
2023/03/15 14:49:45;;;;;;;6.67;1.50;;;;;;;10.50;53.31;100904.25;8276816;28;20505;-51
2023/03/15 14:53:48;;;;;;;3.20;1.10;;;;;;;10.25;53.94;100899.22;8307111;28;20351;-50
2023/03/15 14:57:50;;;;;;;3.45;1.20;;;;;;;10.21;54.41;100903.13;8307067;28;20072;-51
2023/03/15 15:01:53;;;;;;;2.40;1.05;;;;;;;10.23;54.70;100901.16;8306271;28;20474;-56
2023/03/15 15:05:54;;;;;;;4.43;0.98;;;;;;;9.90;53.13;100904.81;8321107;28;20050;-56
2023/03/15 15:09:54;;;;;;;4.05;1.20;;;;;;;9.81;54.11;100915.50;8300716;28;20582;-56
2023/03/15 15:13:56;;;;;;;4.30;1.15;;;;;;;10.29;54.72;100910.59;8320692;28;20045;-57
2023/03/15 15:17:57;;;;;;;4.45;1.00;;;;;;;10.04;54.90;100906.38;8319155;28;20269;-57
2023/03/15 15:21:57;;;;;;;7.25;1.33;;;;;;;10.14;55.16;100901.94;8314778;28;20041;-57
2023/03/15 15:26:02;;;;;;;5.07;1.27;;;;;;;9.99;55.19;100900.47;8314335;28;20446;-57
2023/03/15 15:30:02;;;;;;;2.42;0.98;;;;;;;9.79;55.37;100895.91;8293036;28;20041;-59
2023/03/15 15:34:04;;;;;;;3.28;1.10;;;;;;;9.79;55.04;100898.59;8311681;28;20419;-59
2023/03/15 15:38:10;;;;;;;5.72;0.90;;;;;;;9.85;55.31;100889.97;8316779;28;20183;-60
2023/03/15 15:42:10;;;;;;;3.38;0.98;;;;;;;9.72;55.16;100886.56;8315703;28;20037;-60
2023/03/15 15:46:11;;;;;;;4.40;0.88;;;;;;;9.72;55.41;100883.88;8309979;28;20492;-60
2023/03/15 15:50:14;;;;;;;2.75;1.27;;;;;;;9.54;54.12;100879.97;8306386;28;20041;-53
2023/03/15 15:54:17;;;;;;;3.55;1.30;;;;;;;9.78;56.13;100875.25;8300226;28;20045;-51
2023/03/15 15:58:21;;;;;;;4.90;1.20;;;;;;;9.84;54.82;100872.91;8321785;28;20454;-56
2023/03/15 16:02:22;;;;;;;8.13;1.30;;;;;;;9.96;54.59;100881.84;8293718;28;20037;-55
2023/03/15 16:06:22;;;;;;;5.03;1.20;;;;;;;9.89;55.48;100880.63;8301489;28;20052;-55
2023/03/15 16:10:26;;;;;;;4.07;0.93;;;;;;;9.86;56.21;100880.88;8313609;28;20430;-53
2023/03/15 16:14:26;;;;;;;2.70;1.23;;;;;;;9.74;57.09;100890.00;8309239;28;20052;-58
2023/03/15 16:18:27;;;;;;;4.85;1.00;;;;;;;9.68;55.32;100882.41;8304342;28;20034;-58
2023/03/15 16:22:28;;;;;;;4.28;1.67;;;;;;;9.59;55.85;100888.56;8302955;28;20037;-58
2023/03/15 16:26:28;;;;;;;2.65;0.93;;;;;;;9.53;55.91;100872.88;8311166;28;20096;-58
2023/03/15 16:30:30;;;;;;;4.57;1.02;;;;;;;9.52;58.02;100880.09;8308811;28;20057;-58
2023/03/15 16:34:33;;;;;;;5.63;1.30;;;;;;;9.36;58.13;100886.84;8311217;28;20112;-58
2023/03/15 16:38:34;;;;;;;9.70;1.90;;;;;;;9.28;59.77;100889.34;8324883;28;20088;-58
2023/03/15 16:42:35;;;;;;;5.80;1.63;;;;;;;9.07;61.81;100885.66;8318606;28;20041;-58
2023/03/15 16:46:35;;;;;;;3.38;1.40;;;;;;;8.99;62.70;100894.34;8317983;28;20049;-58
2023/03/15 16:50:36;;;;;;;3.70;1.60;;;;;;;8.90;62.98;100902.28;8318363;28;20040;-58
2023/03/15 16:54:38;;;;;;;3.47;1.42;;;;;;;8.72;63.49;100898.38;8301458;28;20041;-58
2023/03/15 16:58:41;;;;;;;4.72;1.52;;;;;;;8.62;63.84;100905.44;8299011;28;20577;-58
2023/03/15 17:02:45;;;;;;;4.30;1.35;;;;;;;8.49;65.12;100901.97;8316374;28;20037;-58
2023/03/15 17:06:46;;;;;;;4.38;1.77;;;;;;;8.53;64.82;100911.53;8317965;28;20037;-58
2023/03/15 17:10:48;;;;;;;4.10;1.63;;;;;;;8.35;66.71;100918.34;8314468;28;20565;-57
2023/03/15 17:14:49;;;;;;;3.45;1.83;;;;;;;8.32;67.98;100915.88;8317428;28;20091;-58
2023/03/15 17:18:50;;;;;;;4.25;1.98;;;;;;;8.25;68.47;100917.31;8318452;28;20049;-58
2023/03/15 17:22:53;;;;;;;4.93;2.90;;;;;;;8.10;68.42;100900.44;8314057;28;20156;-58
2023/03/15 17:26:53;;;;;;;7.90;2.92;;;;;;;8.00;68.99;100908.34;8304876;28;20346;-57
2023/03/15 17:30:53;;;;;;;4.75;2.67;;;;;;;7.96;70.27;100923.00;8300972;28;20048;-57
2023/03/15 17:34:57;;;;;;;11.00;2.85;;;;;;;7.82;71.57;100919.63;8298382;28;20046;-57
2023/03/15 17:38:58;;;;;;;7.23;2.47;;;;;;;7.69;73.54;100929.59;8303245;28;20420;-57
2023/03/15 17:43:01;;;;;;;6.20;2.55;;;;;;;7.59;75.02;100929.41;8315650;28;20091;-57
2023/03/15 17:47:02;;;;;;;4.70;2.80;;;;;;;7.51;75.69;100926.38;8322960;28;20045;-58
2023/03/15 17:51:04;;;;;;;8.98;3.80;;;;;;;7.44;76.39;100941.25;8298130;28;20613;-57
2023/03/15 17:55:05;;;;;;;5.60;3.40;;;;;;;7.47;75.44;100940.16;8284455;28;20071;-57
2023/03/15 17:59:10;;;;;;;5.30;2.72;;;;;;;7.33;75.32;100935.81;8253008;28;20046;-62
2023/03/15 18:03:12;;;;;;;4.13;2.78;;;;;;;7.34;75.13;100945.59;8291697;28;20065;-62
2023/03/15 18:07:12;;;;;;;4.97;2.70;;;;;;;7.24;75.34;100933.78;8316811;28;20698;-62
2023/03/15 18:15:33;;;;;;;10.05;2.88;;;;;;;7.17;74.54;100932.47;8344825;27;20404;-61
2023/03/15 18:19:34;;;;;;;12.25;4.70;;;;;;;7.11;74.53;100938.28;8344670;28;20132;-62
2023/03/15 18:23:35;;;;;;;4.05;2.65;;;;;;;7.07;75.04;100941.28;8338555;28;20060;-61
2023/03/15 18:27:35;;;;;;;5.28;3.28;;;;;;;7.03;75.54;100946.03;8342465;28;20573;-62
2023/03/15 18:31:36;;;;;;;5.22;2.92;;;;;;;7.04;75.48;100952.25;8328378;28;20529;-62
2023/03/15 18:35:36;;;;;;;5.93;2.78;;;;;;;7.05;75.64;100954.84;8328464;28;20458;-62
2023/03/15 18:39:37;;;;;;;3.80;2.53;;;;;;;7.03;75.76;100961.31;8335273;28;20132;-61
2023/03/15 18:43:38;;;;;;;5.97;2.83;;;;;;;6.70;77.34;100955.56;8334823;28;20122;-62
2023/03/15 18:47:38;;;;;;;4.90;3.05;;;;;;;6.76;78.53;100972.16;8342146;28;20063;-62
2023/03/15 18:51:40;;;;;;;7.30;3.58;;;;;;;6.69;77.87;100970.84;8329309;28;20163;-62
2023/03/15 18:55:40;;;;;;;15.15;7.68;;;;;;;6.66;78.13;100963.00;8334936;28;20045;-62
2023/03/15 18:59:41;;;;;;;9.90;4.50;;;;;;;6.64;78.22;100959.56;8337364;28;20293;-61
2023/03/15 19:03:41;;;;;;;8.10;4.13;;;;;;;6.54;79.02;100974.59;8327740;28;20037;-61
2023/03/15 19:07:43;;;;;;;7.93;5.32;;;;;;;6.38;80.73;100968.53;8321524;28;20042;-61
2023/03/15 19:11:43;;;;;;;10.45;6.43;;;;;;;6.28;81.05;100967.41;8319524;28;20065;-53
2023/03/15 19:15:44;;;;;;;6.38;5.70;;;;;;;6.27;81.52;100978.25;8303551;28;20412;-52
2023/03/15 19:19:44;;;;;;;13.95;9.45;;;;;;;6.17;82.32;100977.16;8321099;28;20041;-54